Time;durP1;ratioP1;P1;durP2;ratioP2;P2;SDS_P1;SDS_P2;PMS_P1;PMS_P2;Temp;Humidity;BMP_temperature;BMP_pressure;BME280_temperature;BME280_humidity;BME280_pressure;Samples;Min_cycle;Max_cycle;Signal;HPM_P1;HPM_P2
2022/07/07 00:02:21;;;;;;;67.40;4.93;;;20.50;5.60;;;;;;5076158;28;20171;-86
2022/07/07 00:04:47;;;;;;;68.53;4.60;;;20.50;5.90;;;;;;5094869;28;20214;-86
2022/07/07 00:07:13;;;;;;;68.27;4.17;;;20.30;7.20;;;;;;5094808;28;20188;-86
2022/07/07 00:09:39;;;;;;;69.07;5.00;;;20.30;8.80;;;;;;5094653;28;20216;-86
2022/07/07 00:12:06;;;;;;;68.37;4.43;;;20.30;8.50;;;;;;5094858;28;20396;-86
2022/07/07 00:14:32;;;;;;;66.27;4.37;;;20.30;7.70;;;;;;5077588;28;20174;-86
2022/07/07 00:17:00;;;;;;;68.93;4.80;;;20.30;8.10;;;;;;5096161;28;20421;-86
2022/07/07 00:19:26;;;;;;;67.30;4.70;;;20.30;9.30;;;;;;5095738;28;20426;-86
2022/07/07 00:21:52;;;;;;;67.60;4.47;;;20.30;8.70;;;;;;5095170;28;20800;-86
2022/07/07 00:24:18;;;;;;;70.33;4.63;;;20.30;9.40;;;;;;5094461;28;20442;-86
2022/07/07 00:26:44;;;;;;;68.47;5.50;;;20.30;9.30;;;;;;5094602;28;20429;-86
2022/07/07 00:29:10;;;;;;;74.20;6.20;;;20.20;10.60;;;;;;5094486;28;20544;-86
2022/07/07 00:31:38;;;;;;;69.53;4.87;;;20.20;11.10;;;;;;5094977;28;20756;-86
2022/07/07 00:34:03;;;;;;;69.30;5.57;;;20.30;11.80;;;;;;5094571;28;20444;-86
2022/07/07 00:36:29;;;;;;;72.87;5.87;;;20.20;12.20;;;;;;5094845;28;20403;-86
2022/07/07 00:38:55;;;;;;;69.37;5.10;;;20.10;14.70;;;;;;5076563;28;20254;-86
2022/07/07 00:41:21;;;;;;;68.47;5.50;;;20.10;14.40;;;;;;5075925;28;20505;-86
2022/07/07 00:43:46;;;;;;;69.10;5.77;;;20.10;14.80;;;;;;5094253;28;20185;-86
2022/07/07 00:46:13;;;;;;;71.30;5.80;;;20.10;15.50;;;;;;5076311;28;20645;-86
2022/07/07 00:48:40;;;;;;;68.20;7.03;;;20.10;15.90;;;;;;5076294;28;20197;-86
2022/07/07 00:51:09;;;;;;;69.47;6.43;;;20.10;18.80;;;;;;5094368;28;20408;-86
2022/07/07 00:53:35;;;;;;;68.03;6.67;;;19.90;20.50;;;;;;5094198;28;20399;-86
2022/07/07 00:56:01;;;;;;;72.90;7.50;;;19.90;21.40;;;;;;5093914;28;20427;-86
2022/07/07 00:58:27;;;;;;;69.57;8.67;;;19.80;22.80;;;;;;5075756;28;21008;-86
2022/07/07 01:00:52;;;;;;;71.17;9.20;;;19.80;22.90;;;;;;5093813;28;20285;-86
2022/07/07 01:03:19;;;;;;;71.97;9.60;;;19.80;24.20;;;;;;5094042;28;20427;-86
2022/07/07 01:05:48;;;;;;;70.70;10.97;;;19.80;24.70;;;;;;5093902;28;20164;-86
2022/07/07 01:08:17;;;;;;;70.10;11.07;;;19.90;23.90;;;;;;5093815;28;20947;-86
2022/07/07 01:10:44;;;;;;;71.30;13.97;;;19.80;25.30;;;;;;5075467;28;20450;-86
2022/07/07 01:13:10;;;;;;;77.43;15.10;;;19.80;27.30;;;;;;5092822;28;20427;-86
2022/07/07 01:15:35;;;;;;;72.50;17.70;;;19.60;31.30;;;;;;5093818;28;20393;-86
2022/07/07 01:18:01;;;;;;;71.67;18.30;;;19.60;32.50;;;;;;5093428;28;20177;-86
2022/07/07 01:20:27;;;;;;;73.67;16.20;;;19.60;32.30;;;;;;5093534;28;20246;-86
2022/07/07 01:22:54;;;;;;;74.87;18.20;;;19.60;32.20;;;;;;5075390;28;20177;-86
2022/07/07 01:25:20;;;;;;;72.97;16.97;;;19.70;33.20;;;;;;5093497;28;20765;-86
2022/07/07 01:27:46;;;;;;;73.57;16.27;;;19.70;33.10;;;;;;5093332;28;20413;-86
2022/07/07 01:30:13;;;;;;;72.90;14.53;;;19.80;32.60;;;;;;5093348;28;20453;-86
2022/07/07 01:32:38;;;;;;;75.07;14.83;;;19.70;34.30;;;;;;5093635;28;20190;-86
2022/07/07 01:35:11;;;;;;;73.70;14.37;;;19.70;33.90;;;;;;5093419;28;20396;-86
2022/07/07 01:37:37;;;;;;;74.33;11.90;;;19.60;36.90;;;;;;5093511;28;20185;-86
2022/07/07 01:40:04;;;;;;;73.23;14.00;;;19.70;35.60;;;;;;5093222;28;20407;-86
2022/07/07 01:42:30;;;;;;;72.77;14.30;;;19.70;34.10;;;;;;5093163;28;20406;-86
2022/07/07 01:44:56;;;;;;;71.40;11.90;;;19.70;39.50;;;;;;5075111;28;20418;-86
2022/07/07 01:47:23;;;;;;;68.40;10.23;;;19.70;38.30;;;;;;5075146;28;20504;-86
2022/07/07 01:49:49;;;;;;;72.03;14.47;;;19.70;38.10;;;;;;5093686;28;20450;-86
2022/07/07 01:52:15;;;;;;;68.50;10.57;;;19.70;39.30;;;;;;5093145;28;20435;-86
2022/07/07 01:54:40;;;;;;;74.37;10.87;;;19.70;38.90;;;;;;5093165;28;20424;-86
2022/07/07 01:57:07;;;;;;;69.57;9.60;;;19.70;39.10;;;;;;5093319;28;20693;-86
2022/07/07 01:59:34;;;;;;;73.40;11.97;;;19.70;39.70;;;;;;5093381;28;20174;-86
2022/07/07 02:02:00;;;;;;;70.10;9.77;;;19.70;38.80;;;;;;5075150;28;20409;-86
2022/07/07 02:04:25;;;;;;;69.30;10.27;;;19.70;40.30;;;;;;5093048;28;20489;-86
2022/07/07 02:06:51;;;;;;;71.27;9.27;;;19.70;39.40;;;;;;5093534;28;20520;-86
2022/07/07 02:09:17;;;;;;;68.27;8.60;;;19.70;41.20;;;;;;5092908;28;20572;-86
2022/07/07 02:11:43;;;;;;;71.17;10.20;;;19.70;41.40;;;;;;5074915;28;20412;-86
2022/07/07 02:14:12;;;;;;;70.90;8.10;;;19.70;41.20;;;;;;5092999;28;20168;-86
2022/07/07 02:16:38;;;;;;;67.97;6.27;;;19.60;46.30;;;;;;5093088;28;20760;-86
2022/07/07 02:19:06;;;;;;;71.30;7.43;;;19.70;47.10;;;;;;5092986;28;20480;-86
2022/07/07 02:21:32;;;;;;;69.57;7.77;;;19.70;48.70;;;;;;5075346;28;20178;-86
2022/07/07 02:23:59;;;;;;;69.47;7.50;;;19.70;58.20;;;;;;5093059;28;20411;-86
2022/07/07 02:26:25;;;;;;;71.40;9.87;;;19.60;66.80;;;;;;5097139;28;20398;-86
2022/07/07 02:28:51;;;;;;;71.50;10.17;;;19.60;63.40;;;;;;5096342;28;20960;-86
2022/07/07 02:31:17;;;;;;;69.50;15.47;;;19.60;66.10;;;;;;5180031;22;20478;-85
2022/07/07 02:33:43;;;;;;;75.17;28.90;;;19.60;69.60;;;;;;5109010;28;20458;-85
2022/07/07 02:36:10;;;;;;;75.93;29.07;;;19.60;71.90;;;;;;5107654;28;20393;-85
2022/07/07 02:38:37;;;;;;;82.73;37.60;;;19.50;75.30;;;;;;5091167;28;20443;-85
2022/07/07 02:41:04;;;;;;;79.03;31.57;;;19.60;73.60;;;;;;5110178;28;20742;-86
2022/07/07 02:43:30;;;;;;;82.20;38.90;;;19.60;76.00;;;;;;5110933;28;20425;-85
2022/07/07 02:45:56;;;;;;;76.27;35.23;;;19.60;76.30;;;;;;5111785;28;20420;-85
2022/07/07 02:48:23;;;;;;;76.17;27.47;;;19.50;85.70;;;;;;5092535;28;20437;-85
2022/07/07 02:50:50;;;;;;;77.47;33.83;;;19.60;80.60;;;;;;5111486;28;20480;-85
2022/07/07 02:53:17;;;;;;;79.77;36.67;;;19.60;78.60;;;;;;5110833;28;20466;-85
2022/07/07 02:55:43;;;;;;;75.43;30.63;;;19.60;81.10;;;;;;5110637;28;20892;-85
2022/07/07 02:58:10;;;;;;;83.53;33.97;;;19.60;80.70;;;;;;5091983;28;20435;-85
2022/07/07 03:00:37;;;;;;;74.10;23.50;;;19.60;77.90;;;;;;5109838;28;20506;-85
2022/07/07 03:03:05;;;;;;;78.00;25.07;;;19.60;80.40;;;;;;5111178;28;20450;-85
2022/07/07 03:05:32;;;;;;;76.63;27.73;;;19.60;80.70;;;;;;5110850;28;20414;-85
2022/07/07 03:07:58;;;;;;;75.47;26.27;;;19.60;78.40;;;;;;5093640;28;20433;-84
2022/07/07 03:10:24;;;;;;;75.00;24.80;;;19.50;81.40;;;;;;5092184;28;20457;-85
2022/07/07 03:12:50;;;;;;;74.90;25.67;;;19.50;81.70;;;;;;5110306;28;20420;-85
2022/07/07 03:15:16;;;;;;;77.20;26.03;;;19.50;79.50;;;;;;5091185;28;20424;-85
2022/07/07 03:17:43;;;;;;;73.20;23.57;;;19.60;78.50;;;;;;5109759;28;20434;-85
2022/07/07 03:20:10;;;;;;;82.40;31.43;;;19.50;79.10;;;;;;5109308;28;20757;-85
2022/07/07 03:22:40;;;;;;;73.90;26.83;;;19.50;80.90;;;;;;5091771;28;20415;-85
2022/07/07 03:25:07;;;;;;;78.73;26.27;;;19.50;80.40;;;;;;5110346;28;20402;-85
2022/07/07 03:27:34;;;;;;;79.10;38.57;;;19.40;86.80;;;;;;5108722;28;20429;-84
2022/07/07 03:30:00;;;;;;;77.77;40.97;;;19.30;88.20;;;;;;5109254;28;20436;-85
2022/07/07 03:32:26;;;;;;;81.87;44.53;;;19.30;89.90;;;;;;5109619;28;20719;-85
2022/07/07 03:34:52;;;;;;;77.07;35.73;;;19.30;88.10;;;;;;5110193;28;20492;-85
2022/07/07 03:37:17;;;;;;;78.70;36.17;;;19.40;88.00;;;;;;5090488;28;20188;-84
2022/07/07 03:39:43;;;;;;;77.20;37.73;;;19.30;90.40;;;;;;5108926;28;20178;-83
2022/07/07 03:42:09;;;;;;;77.07;36.97;;;19.30;91.20;;;;;;5090535;28;20425;-84
2022/07/07 03:44:35;;;;;;;77.40;35.23;;;19.30;92.50;;;;;;5108710;28;20187;-85
2022/07/07 03:47:00;;;;;;;77.33;41.00;;;19.20;92.90;;;;;;5108155;28;20265;-84
2022/07/07 03:49:26;;;;;;;77.73;34.10;;;19.30;92.30;;;;;;5089072;28;20242;-84
2022/07/07 03:51:52;;;;;;;81.37;37.80;;;19.30;91.60;;;;;;5089491;28;20168;-84
2022/07/07 03:54:18;;;;;;;78.87;39.97;;;19.20;93.50;;;;;;5106617;28;20189;-84
2022/07/07 03:56:44;;;;;;;74.07;31.60;;;19.20;93.90;;;;;;5105710;28;20174;-84
2022/07/07 03:59:09;;;;;;;77.20;36.57;;;19.20;95.00;;;;;;5106302;28;20258;-85
2022/07/07 04:01:36;;;;;;;78.80;42.17;;;19.20;96.00;;;;;;5105996;28;20408;-85
2022/07/07 04:04:04;;;;;;;79.83;47.53;;;19.10;96.80;;;;;;5105718;28;20707;-84
2022/07/07 04:06:31;;;;;;;90.17;71.90;;;19.10;96.40;;;;;;5103458;28;20977;-84
2022/07/07 04:08:57;;;;;;;101.53;90.80;;;19.10;98.60;;;;;;5103337;28;20406;-85
2022/07/07 04:11:22;;;;;;;107.03;96.03;;;19.10;99.10;;;;;;5104491;28;20413;-84
2022/07/07 04:13:48;;;;;;;99.07;87.33;;;19.00;99.00;;;;;;5087643;28;20402;-85
2022/07/07 04:16:14;;;;;;;106.37;94.87;;;19.10;99.20;;;;;;5106783;28;20199;-85
2022/07/07 04:18:40;;;;;;;109.50;98.37;;;19.10;99.90;;;;;;5106345;28;20219;-85
2022/07/07 04:21:05;;;;;;;118.37;106.83;;;19.10;99.80;;;;;;5108026;28;20163;-85
2022/07/07 04:23:31;;;;;;;93.73;83.57;;;19.10;99.90;;;;;;5106293;28;20254;-84
2022/07/07 04:25:57;;;;;;;106.13;94.83;;;19.10;99.90;;;;;;5089037;28;20235;-85
2022/07/07 04:28:23;;;;;;;111.17;99.83;;;19.10;99.90;;;;;;5106656;28;20210;-84
2022/07/07 04:30:48;;;;;;;95.60;78.67;;;19.10;99.90;;;;;;5088438;28;20292;-85
2022/07/07 04:33:14;;;;;;;87.37;70.17;;;19.10;99.90;;;;;;5088097;28;20594;-84
2022/07/07 04:35:40;;;;;;;84.90;65.27;;;19.10;99.90;;;;;;5088559;28;20163;-85
2022/07/07 04:38:06;;;;;;;83.00;59.23;;;19.10;99.90;;;;;;5105702;28;20183;-84
2022/07/07 04:40:32;;;;;;;84.07;60.27;;;19.00;99.90;;;;;;5087250;28;20438;-84
2022/07/07 04:42:57;;;;;;;81.33;56.20;;;19.10;99.90;;;;;;5105911;28;20180;-85
2022/07/07 04:45:23;;;;;;;87.57;66.77;;;19.20;99.90;;;;;;5107068;28;20190;-84
2022/07/07 04:47:49;;;;;;;86.00;63.47;;;19.20;99.90;;;;;;5105432;28;20179;-85
2022/07/07 04:50:14;;;;;;;83.60;60.60;;;19.20;99.90;;;;;;5087596;28;20190;-85
2022/07/07 04:52:40;;;;;;;89.27;78.03;;;19.20;99.90;;;;;;5104540;28;20156;-84
2022/07/07 04:55:07;;;;;;;88.87;74.73;;;19.30;99.90;;;;;;5086187;28;20187;-85
2022/07/07 04:57:33;;;;;;;85.60;70.43;;;19.30;99.90;;;;;;5104817;28;20444;-85
2022/07/07 04:59:59;;;;;;;83.30;60.57;;;19.30;99.90;;;;;;5103644;28;20408;-83
2022/07/07 05:02:24;;;;;;;82.40;55.97;;;19.20;99.90;;;;;;5104029;28;20402;-85
2022/07/07 05:04:50;;;;;;;85.00;53.93;;;19.20;99.90;;;;;;5104086;28;20182;-85
2022/07/07 05:07:17;;;;;;;79.43;51.60;;;19.20;99.90;;;;;;5085479;28;20191;-84
2022/07/07 05:09:43;;;;;;;82.40;42.73;;;19.10;99.90;;;;;;5103521;28;20269;-84
2022/07/07 05:12:09;;;;;;;72.90;29.27;;;19.10;99.90;;;;;;5103607;28;20498;-83
2022/07/07 05:14:35;;;;;;;73.80;33.13;;;19.10;99.90;;;;;;5102805;28;20221;-84
2022/07/07 05:17:00;;;;;;;76.23;37.63;;;19.10;99.90;;;;;;5084777;28;20425;-84
2022/07/07 05:19:27;;;;;;;77.20;32.57;;;19.10;99.90;;;;;;5085168;28;20409;-84
2022/07/07 05:21:53;;;;;;;72.60;30.63;;;19.10;99.90;;;;;;5103522;28;20168;-83
2022/07/07 05:24:19;;;;;;;71.20;26.77;;;19.10;99.90;;;;;;5104184;28;20759;-84
2022/07/07 05:26:45;;;;;;;70.90;23.40;;;19.00;99.90;;;;;;5103510;28;20440;-84
2022/07/07 05:29:11;;;;;;;71.17;26.63;;;19.00;99.90;;;;;;5102661;28;20440;-84
2022/07/07 05:31:37;;;;;;;69.80;22.80;;;19.10;99.90;;;;;;5101343;28;20444;-84
2022/07/07 05:34:03;;;;;;;70.90;19.37;;;19.00;99.90;;;;;;5102267;28;20397;-84
2022/07/07 05:36:29;;;;;;;68.30;16.87;;;19.10;99.90;;;;;;5102995;28;20167;-84
2022/07/07 05:38:55;;;;;;;71.40;23.33;;;19.20;99.90;;;;;;5103228;28;20229;-83
2022/07/07 05:41:21;;;;;;;69.30;21.10;;;19.20;99.90;;;;;;5103407;28;20397;-84
2022/07/07 05:43:48;;;;;;;73.10;23.03;;;19.20;99.90;;;;;;5102301;28;20195;-84
2022/07/07 05:46:14;;;;;;;69.40;16.60;;;19.30;99.90;;;;;;5084778;28;20412;-84
2022/07/07 05:48:39;;;;;;;68.60;19.80;;;19.30;99.90;;;;;;5103630;28;20789;-84
2022/07/07 05:51:05;;;;;;;68.67;15.03;;;19.30;99.90;;;;;;5101413;28;20453;-83
2022/07/07 05:53:31;;;;;;;66.77;13.60;;;19.40;99.90;;;;;;5081495;28;20262;-84
2022/07/07 05:55:57;;;;;;;73.50;14.57;;;19.20;99.90;;;;;;5100585;28;20174;-84
2022/07/07 05:58:24;;;;;;;71.60;16.43;;;19.20;99.90;;;;;;5101268;28;20837;-84
2022/07/07 06:00:50;;;;;;;68.90;19.43;;;19.30;99.90;;;;;;5103138;28;20401;-84
2022/07/07 06:03:16;;;;;;;69.80;18.67;;;19.20;99.90;;;;;;5101445;28;20412;-85
2022/07/07 06:05:43;;;;;;;71.93;25.73;;;19.30;99.90;;;;;;5081278;28;20397;-84
2022/07/07 06:08:09;;;;;;;78.93;42.50;;;19.20;99.90;;;;;;5101428;28;20421;-84
2022/07/07 06:10:35;;;;;;;82.43;55.43;;;19.20;99.90;;;;;;5103347;28;20448;-85
2022/07/07 06:13:02;;;;;;;93.43;65.30;;;19.20;99.90;;;;;;5105976;28;20402;-85
2022/07/07 06:15:30;;;;;;;87.20;69.07;;;19.20;99.90;;;;;;5106352;28;20408;-85
2022/07/07 06:17:58;;;;;;;87.90;58.03;;;19.10;99.90;;;;;;5105420;28;20425;-85
2022/07/07 06:20:24;;;;;;;88.53;62.83;;;19.00;99.90;;;;;;5106523;28;20485;-85
2022/07/07 06:22:50;;;;;;;82.77;51.43;;;18.90;99.90;;;;;;5108184;28;20409;-86
2022/07/07 06:25:20;;;;;;;85.90;61.30;;;18.80;99.90;;;;;;5107785;28;20160;-86
2022/07/07 06:27:49;;;;;;;82.23;52.63;;;18.70;99.90;;;;;;5083997;28;20194;-87
2022/07/07 06:30:15;;;;;;;97.63;85.37;;;18.60;99.90;;;;;;5099920;28;20570;-86
2022/07/07 06:32:41;;;;;;;129.17;117.40;;;18.40;99.90;;;;;;5081204;28;20478;-87
2022/07/07 06:35:07;;;;;;;140.87;129.23;;;18.30;99.90;;;;;;5100168;28;20389;-85
2022/07/07 06:37:34;;;;;;;109.47;98.67;;;18.30;99.90;;;;;;5101162;28;20431;-85
2022/07/07 06:40:00;;;;;;;94.20;84.03;;;18.30;99.90;;;;;;5101199;28;20528;-86
2022/07/07 06:42:26;;;;;;;95.80;84.17;;;18.30;99.90;;;;;;5101571;28;20409;-85
2022/07/07 06:44:51;;;;;;;91.33;81.00;;;18.40;99.90;;;;;;5101505;28;20405;-86
2022/07/07 06:47:17;;;;;;;93.50;80.13;;;18.60;99.90;;;;;;5081294;28;20187;-85
2022/07/07 06:49:42;;;;;;;97.80;87.33;;;18.70;99.90;;;;;;5100459;28;20232;-85
2022/07/07 06:52:09;;;;;;;102.00;91.73;;;18.80;99.90;;;;;;5083447;28;20175;-86
2022/07/07 06:54:37;;;;;;;102.17;91.87;;;18.90;99.90;;;;;;5103566;28;20151;-85
2022/07/07 06:57:03;;;;;;;107.37;96.40;;;19.00;99.90;;;;;;5084794;28;20441;-85
2022/07/07 06:59:29;;;;;;;103.93;93.50;;;19.00;99.90;;;;;;5086012;28;21026;-85
2022/07/07 07:01:54;;;;;;;110.57;100.00;;;19.00;99.90;;;;;;5104068;28;20504;-85
2022/07/07 07:04:20;;;;;;;86.90;73.00;;;19.20;99.90;;;;;;5104023;28;20406;-85
2022/07/07 07:06:46;;;;;;;89.07;78.50;;;19.30;99.90;;;;;;5104692;28;20223;-85
2022/07/07 07:09:13;;;;;;;98.77;88.23;;;19.20;99.90;;;;;;5085488;28;20646;-85
2022/07/07 07:11:39;;;;;;;85.90;69.40;;;19.20;99.90;;;;;;5083794;28;20238;-85
2022/07/07 07:14:05;;;;;;;85.40;58.93;;;19.20;99.90;;;;;;5086507;28;20497;-86
2022/07/07 07:16:31;;;;;;;76.43;42.63;;;19.20;99.90;;;;;;5104762;28;20409;-86
2022/07/07 07:18:57;;;;;;;82.27;52.30;;;19.20;99.90;;;;;;5104568;28;20441;-86
2022/07/07 07:21:22;;;;;;;78.20;44.23;;;19.20;99.90;;;;;;5106248;28;20410;-85
2022/07/07 07:23:48;;;;;;;80.77;50.73;;;19.20;99.90;;;;;;5105293;28;20459;-86
2022/07/07 07:26:14;;;;;;;76.70;43.33;;;19.20;99.90;;;;;;5104848;28;20168;-86
2022/07/07 07:28:40;;;;;;;77.33;45.90;;;19.30;99.90;;;;;;5104242;28;20186;-87
2022/07/07 07:31:06;;;;;;;68.73;23.67;;;19.40;99.90;;;;;;5105393;28;20179;-86
2022/07/07 07:33:32;;;;;;;74.87;38.47;;;19.40;99.90;;;;;;5087325;28;20160;-85
2022/07/07 07:35:58;;;;;;;80.97;56.10;;;19.40;99.90;;;;;;5087211;28;20428;-86
2022/07/07 07:38:24;;;;;;;73.53;35.40;;;19.40;99.90;;;;;;5105008;28;21023;-85
2022/07/07 07:40:50;;;;;;;70.80;24.13;;;19.60;99.90;;;;;;5104760;28;20513;-85
2022/07/07 07:43:15;;;;;;;69.37;21.80;;;19.60;99.90;;;;;;5103916;28;20385;-85
2022/07/07 07:45:42;;;;;;;67.17;15.83;;;19.60;99.90;;;;;;5103977;28;20228;-86
2022/07/07 07:48:08;;;;;;;75.20;22.83;;;19.40;99.90;;;;;;5104715;28;20187;-85
2022/07/07 07:50:34;;;;;;;67.80;20.63;;;19.30;99.90;;;;;;5103977;28;20405;-85
2022/07/07 07:53:03;;;;;;;69.47;20.67;;;19.20;99.90;;;;;;5103736;28;20429;-85
2022/07/07 07:55:30;;;;;;;68.70;23.33;;;19.20;99.90;;;;;;5103285;28;20549;-85
2022/07/07 07:57:56;;;;;;;71.20;31.27;;;19.30;99.90;;;;;;5085653;28;20429;-85
2022/07/07 08:00:23;;;;;;;68.47;22.83;;;19.30;99.90;;;;;;5085577;28;20861;-84
2022/07/07 08:02:50;;;;;;;67.47;20.03;;;19.30;99.90;;;;;;5085681;28;20416;-84
2022/07/07 08:05:18;;;;;;;68.97;19.23;;;19.40;99.90;;;;;;5103384;28;20398;-85
2022/07/07 08:07:44;;;;;;;67.00;16.03;;;19.50;99.90;;;;;;5084778;28;21023;-84
2022/07/07 08:10:13;;;;;;;67.23;15.20;;;19.50;99.90;;;;;;5104770;28;20484;-85
2022/07/07 08:12:40;;;;;;;65.60;12.60;;;19.30;99.90;;;;;;5105264;28;20431;-86
2022/07/07 08:15:06;;;;;;;64.80;13.63;;;19.10;99.90;;;;;;5085779;28;20410;-86
2022/07/07 08:17:32;;;;;;;66.87;20.03;;;18.60;99.90;;;;;;5101522;28;20830;-87
2022/07/07 08:19:59;;;;;;;69.60;27.73;;;18.00;99.90;;;;;;5082095;28;20841;-86
2022/07/07 08:22:24;;;;;;;76.23;44.50;;;17.70;99.90;;;;;;5086103;28;20761;-86
2022/07/07 08:24:50;;;;;;;73.73;35.70;;;17.70;99.90;;;;;;5103855;28;20477;-86
2022/07/07 08:27:16;;;;;;;75.77;40.63;;;17.90;99.90;;;;;;5103710;28;20262;-86
2022/07/07 08:29:42;;;;;;;74.97;40.90;;;18.00;99.90;;;;;;5085404;28;20186;-86
2022/07/07 08:32:10;;;;;;;74.73;38.47;;;18.20;99.90;;;;;;5193702;22;20231;-86
2022/07/07 08:34:40;;;;;;;73.63;37.23;;;18.30;99.90;;;;;;5077935;28;20402;-86
2022/07/07 08:37:06;;;;;;;72.67;31.97;;;18.40;99.90;;;;;;5097584;28;20776;-85
2022/07/07 08:39:33;;;;;;;70.53;27.03;;;18.50;99.90;;;;;;5097312;28;20437;-86
2022/07/07 08:41:59;;;;;;;67.40;18.90;;;18.70;99.90;;;;;;5078739;28;20537;-86
2022/07/07 08:44:26;;;;;;;64.60;9.63;;;18.70;99.90;;;;;;5096181;28;20462;-85
2022/07/07 08:46:51;;;;;;;67.30;19.20;;;18.70;99.90;;;;;;5077609;28;20433;-86
2022/07/07 08:49:17;;;;;;;65.10;11.73;;;18.80;99.90;;;;;;5077767;28;20872;-83
2022/07/07 08:51:45;;;;;;;66.43;11.30;;;18.90;99.90;;;;;;5076885;28;20416;-83
2022/07/07 08:54:12;;;;;;;67.03;12.37;;;18.90;99.90;;;;;;5077303;28;20417;-84
2022/07/07 08:56:39;;;;;;;66.97;13.27;;;19.00;99.90;;;;;;5094738;28;20406;-84
2022/07/07 08:59:09;;;;;;;69.30;12.40;;;19.10;99.90;;;;;;5094315;28;20409;-84
2022/07/07 09:01:35;;;;;;;67.43;13.53;;;19.30;99.90;;;;;;5094929;28;20408;-84
2022/07/07 09:04:04;;;;;;;67.73;13.03;;;19.30;99.90;;;;;;5077214;28;20516;-84
2022/07/07 09:06:30;;;;;;;65.30;9.23;;;19.50;99.90;;;;;;5094798;28;20406;-85
2022/07/07 09:08:56;;;;;;;66.60;10.73;;;19.50;99.90;;;;;;5076562;28;20420;-84
2022/07/07 09:11:26;;;;;;;64.40;8.90;;;19.50;99.90;;;;;;5077021;28;20420;-84
2022/07/07 09:14:17;;;;;;;64.27;11.97;;;19.40;99.90;;;;;;5078876;28;20431;-83
2022/07/07 09:16:44;;;;;;;67.60;9.20;;;19.10;99.90;;;;;;5094155;28;20409;-85
2022/07/07 09:19:20;;;;;;;64.50;11.73;;;18.90;99.90;;;;;;5094896;28;20453;-85
2022/07/07 09:21:47;;;;;;;66.33;8.77;;;18.90;99.90;;;;;;5078868;28;20477;-85
2022/07/07 09:24:13;;;;;;;77.93;26.47;;;18.70;99.90;;;;;;5083001;28;20405;-86
2022/07/07 09:26:47;;;;;;;64.97;11.70;;;18.60;99.90;;;;;;5106332;28;20463;-85
2022/07/07 09:29:19;;;;;;;68.33;11.60;;;18.60;99.90;;;;;;5087550;28;20428;-86
2022/07/07 09:32:04;;;;;;;66.37;9.27;;;18.70;99.90;;;;;;5083770;28;20421;-86
2022/07/07 09:34:36;;;;;;;63.97;8.43;;;18.80;99.90;;;;;;5102272;28;20397;-86
2022/07/07 09:39:49;;;;;;;64.27;8.10;;;19.20;99.90;;;;;;5104064;28;20497;-86
2022/07/07 09:42:33;;;;;;;64.17;8.33;;;19.50;99.90;;;;;;5084286;28;20476;-86
2022/07/07 09:45:04;;;;;;;66.87;11.60;;;19.90;99.90;;;;;;5102762;28;20382;-86
2022/07/07 09:47:32;;;;;;;66.43;11.50;;;19.80;99.90;;;;;;5103092;28;20423;-86
2022/07/07 09:49:59;;;;;;;67.80;14.50;;;19.70;99.90;;;;;;5102531;28;20405;-86
2022/07/07 09:52:26;;;;;;;67.00;16.00;;;19.50;99.90;;;;;;5102332;28;20447;-86
2022/07/07 09:54:52;;;;;;;66.17;13.27;;;19.50;99.90;;;;;;5102033;28;20408;-87
2022/07/07 09:57:18;;;;;;;67.27;10.97;;;19.20;99.90;;;;;;5100343;28;20421;-85
2022/07/07 09:59:44;;;;;;;65.60;12.33;;;19.10;99.90;;;;;;5100148;28;20271;-85
2022/07/07 10:02:21;;;;;;;66.50;14.60;;;19.10;99.90;;;;;;5100760;28;20431;-87
2022/07/07 10:04:48;;;;;;;66.60;14.97;;;19.20;99.90;;;;;;5082974;28;20397;-86
2022/07/07 10:07:18;;;;;;;66.77;13.93;;;19.40;99.90;;;;;;5082126;28;20952;-84
2022/07/07 10:09:44;;;;;;;66.80;13.20;;;19.40;98.70;;;;;;5077752;28;20454;-83
2022/07/07 10:12:11;;;;;;;65.00;9.60;;;19.70;97.30;;;;;;5094234;28;20569;-83
2022/07/07 10:14:42;;;;;;;66.80;10.70;;;19.80;93.70;;;;;;5096409;28;20761;-84
2022/07/07 10:17:09;;;;;;;66.73;6.97;;;19.80;94.50;;;;;;5099567;28;20420;-85
2022/07/07 10:19:35;;;;;;;64.87;4.73;;;20.00;94.70;;;;;;5105255;28;20447;-86
2022/07/07 10:22:04;;;;;;;63.17;2.87;;;20.10;86.00;;;;;;5102389;28;20407;-85
2022/07/07 10:24:32;;;;;;;64.30;2.70;;;20.20;77.10;;;;;;5083538;28;20636;-85
2022/07/07 10:27:00;;;;;;;65.20;2.87;;;20.30;75.00;;;;;;5082794;28;20800;-86
2022/07/07 10:29:45;;;;;;;65.03;2.60;;;20.20;75.70;;;;;;5083805;28;20409;-85
2022/07/07 10:32:17;;;;;;;65.10;3.37;;;20.30;71.40;;;;;;5102027;28;20425;-86
2022/07/07 10:34:55;;;;;;;63.47;3.20;;;20.40;80.30;;;;;;5101373;28;20422;-86
2022/07/07 10:37:22;;;;;;;64.10;3.30;;;20.70;60.30;;;;;;5102022;28;20450;-86
2022/07/07 10:39:50;;;;;;;65.20;3.00;;;20.60;66.20;;;;;;5102365;28;20443;-86
2022/07/07 10:42:16;;;;;;;64.20;3.17;;;20.70;65.30;;;;;;5084229;28;20429;-86
2022/07/07 10:44:43;;;;;;;64.37;3.60;;;20.50;61.80;;;;;;5083541;28;20417;-86
2022/07/07 10:47:12;;;;;;;66.40;3.17;;;20.40;68.60;;;;;;5085773;28;20206;-86
2022/07/07 10:49:43;;;;;;;64.80;3.13;;;20.20;80.90;;;;;;5105553;28;20405;-85
2022/07/07 10:52:14;;;;;;;64.77;3.50;;;20.10;75.50;;;;;;5086160;28;20418;-86
2022/07/07 10:54:45;;;;;;;67.60;4.07;;;20.10;72.50;;;;;;5086917;28;20417;-86
2022/07/07 10:57:13;;;;;;;65.67;3.97;;;20.10;70.20;;;;;;5104579;28;20430;-86
2022/07/07 10:59:59;;;;;;;64.30;4.03;;;20.00;61.80;;;;;;5087168;28;20441;-86
2022/07/07 11:02:36;;;;;;;64.40;3.40;;;20.10;65.40;;;;;;5103845;28;20439;-85
2022/07/07 11:05:25;;;;;;;64.00;3.43;;;20.20;70.60;;;;;;5102789;28;20896;-85
2022/07/07 11:07:59;;;;;;;64.70;3.67;;;20.30;61.20;;;;;;5103453;28;20418;-86
2022/07/07 11:10:54;;;;;;;66.30;3.77;;;20.50;56.10;;;;;;5103540;28;20422;-86
2022/07/07 11:13:30;;;;;;;64.80;4.10;;;20.50;60.40;;;;;;5085474;28;20409;-86
2022/07/07 11:16:19;;;;;;;67.73;4.10;;;20.80;54.50;;;;;;5103766;28;20389;-85
2022/07/07 11:19:00;;;;;;;65.53;4.40;;;21.00;51.20;;;;;;5084759;28;20436;-86
2022/07/07 11:21:39;;;;;;;65.17;4.93;;;21.10;43.40;;;;;;5103666;28;20922;-85
2022/07/07 11:24:20;;;;;;;67.07;4.50;;;21.00;51.70;;;;;;5103169;28;20383;-86
2022/07/07 11:26:58;;;;;;;64.47;4.00;;;20.80;56.40;;;;;;5084838;28;20385;-84
2022/07/07 11:29:24;;;;;;;65.60;4.70;;;20.60;68.80;;;;;;5084501;28;20413;-85
2022/07/07 11:32:02;;;;;;;65.57;5.53;;;20.40;71.90;;;;;;5102859;28;20516;-85
2022/07/07 11:34:43;;;;;;;68.13;4.20;;;20.10;82.90;;;;;;5102801;28;20395;-85
2022/07/07 11:37:20;;;;;;;65.43;4.20;;;19.80;90.40;;;;;;5084352;28;20486;-86
2022/07/07 11:39:46;;;;;;;64.27;3.40;;;19.60;92.90;;;;;;5103076;28;20490;-86
2022/07/07 11:42:11;;;;;;;63.97;3.80;;;19.30;89.10;;;;;;5102893;28;20405;-85
2022/07/07 11:44:37;;;;;;;65.20;3.40;;;19.20;89.80;;;;;;5085969;28;20170;-87
2022/07/07 11:47:03;;;;;;;63.50;3.50;;;19.10;91.30;;;;;;5104286;28;20183;-86
2022/07/07 11:49:32;;;;;;;63.30;2.80;;;19.10;91.10;;;;;;5085496;28;20195;-86
2022/07/07 11:51:57;;;;;;;65.23;3.70;;;19.20;91.30;;;;;;5084941;28;20424;-85
2022/07/07 11:54:23;;;;;;;67.07;3.77;;;19.40;92.00;;;;;;5103657;28;20409;-85
2022/07/07 11:56:49;;;;;;;66.67;3.93;;;19.60;90.50;;;;;;5103193;28;20184;-86
2022/07/07 11:59:14;;;;;;;65.67;3.80;;;20.00;89.70;;;;;;5084301;28;20314;-86
2022/07/07 12:01:45;;;;;;;65.20;3.60;;;20.50;80.70;;;;;;5103439;28;20167;-86
2022/07/07 12:04:14;;;;;;;67.10;4.30;;;20.80;69.40;;;;;;5103538;28;20141;-86
2022/07/07 12:06:41;;;;;;;64.30;4.00;;;21.00;62.60;;;;;;5085028;28;20413;-85
2022/07/07 12:09:07;;;;;;;65.53;4.20;;;21.00;66.20;;;;;;5101332;28;20435;-86
2022/07/07 12:11:41;;;;;;;67.30;4.33;;;21.00;65.30;;;;;;5102046;28;20403;-84
2022/07/07 12:14:08;;;;;;;64.57;4.53;;;20.80;58.70;;;;;;5101405;28;20379;-85
2022/07/07 12:16:52;;;;;;;67.57;5.00;;;20.80;60.10;;;;;;5101506;28;20401;-86
2022/07/07 12:19:22;;;;;;;68.10;4.87;;;20.50;59.10;;;;;;5103150;28;20520;-85
2022/07/07 12:21:50;;;;;;;64.30;4.50;;;20.20;65.90;;;;;;5101769;28;20768;-85
2022/07/07 12:24:22;;;;;;;65.67;4.57;;;20.20;71.10;;;;;;5102638;28;20406;-86
2022/07/07 12:26:51;;;;;;;65.07;4.00;;;20.10;68.20;;;;;;5083890;28;20809;-86
2022/07/07 12:29:21;;;;;;;66.23;4.10;;;20.20;70.30;;;;;;5084646;28;20467;-86
2022/07/07 12:31:49;;;;;;;66.90;4.87;;;20.30;61.60;;;;;;5103469;28;20409;-86
2022/07/07 12:34:16;;;;;;;67.37;5.43;;;20.40;63.40;;;;;;5105866;28;20869;-86
2022/07/07 12:36:46;;;;;;;65.07;4.87;;;20.70;58.20;;;;;;5103684;28;20397;-86